createdAt,value
2022-08-05T00:01:36.159Z,38.18
2022-08-05T00:04:18.194Z,38.62
2022-08-05T00:06:51.683Z,38.87
2022-08-05T00:09:20.932Z,39.13
2022-08-05T00:11:56.181Z,39.44
2022-08-05T00:14:29.117Z,39.30
2022-08-05T00:16:58.548Z,39.78
2022-08-05T00:19:33.638Z,39.23
2022-08-05T00:22:14.453Z,39.33
2022-08-05T00:24:47.208Z,38.63
2022-08-05T00:27:36.315Z,39.18
2022-08-05T00:30:11.345Z,39.57
2022-08-05T00:32:40.442Z,39.45
2022-08-05T00:35:10.115Z,38.91
2022-08-05T00:37:52.934Z,38.87
2022-08-05T00:40:26.931Z,38.95
2022-08-05T00:42:59.126Z,38.69
2022-08-05T00:45:38.392Z,38.93
2022-08-05T00:48:09.285Z,38.87
2022-08-05T00:50:39.496Z,38.78
2022-08-05T00:53:45.188Z,39.00
2022-08-05T00:55:59.783Z,39.12
2022-08-05T00:58:30.284Z,38.65
2022-08-05T01:00:59.047Z,39.07
2022-08-05T01:03:33.319Z,39.49
2022-08-05T01:06:05.432Z,39.61
2022-08-05T01:08:43.195Z,39.33
2022-08-05T01:11:22.133Z,39.31
2022-08-05T01:14:03.253Z,39.08
2022-08-05T01:16:40.980Z,38.97
2022-08-05T01:19:21.192Z,39.01
2022-08-05T01:22:18.880Z,39.22
2022-08-05T01:25:15.830Z,39.63
2022-08-05T01:27:56.012Z,39.63
2022-08-05T01:30:34.844Z,39.21
2022-08-05T01:33:04.963Z,39.25
2022-08-05T01:35:52.062Z,39.43
2022-08-05T01:38:26.830Z,38.37
2022-08-05T01:40:59.717Z,39.06
2022-08-05T01:43:31.908Z,38.31
2022-08-05T01:46:06.914Z,38.78
2022-08-05T01:48:49.362Z,39.23
2022-08-05T01:51:19.949Z,38.51
2022-08-05T01:53:58.024Z,38.87
2022-08-05T01:58:12.660Z,39.78
2022-08-05T01:59:23.161Z,39.66
2022-08-05T02:01:55.094Z,39.40
2022-08-05T02:04:25.584Z,40.33
2022-08-05T02:06:55.030Z,40.13
2022-08-05T02:09:24.652Z,39.90
2022-08-05T02:12:02.923Z,40.83
2022-08-05T02:14:34.791Z,40.71
2022-08-05T02:17:06.555Z,40.76
2022-08-05T02:19:47.403Z,40.14
2022-08-05T02:22:26.661Z,40.48
2022-08-05T02:25:03.627Z,40.00
2022-08-05T02:27:58.649Z,40.13
2022-08-05T02:30:26.948Z,40.18
2022-08-05T02:32:56.975Z,40.76
2022-08-05T02:35:33.174Z,40.84
2022-08-05T02:38:09.370Z,40.96
2022-08-05T02:40:40.137Z,40.46
2022-08-05T02:43:09.651Z,40.24
2022-08-05T02:45:52.221Z,40.33
2022-08-05T02:48:29.120Z,40.28
2022-08-05T02:50:59.975Z,40.54
2022-08-05T02:53:29.196Z,41.07
2022-08-05T02:56:15.938Z,40.79
2022-08-05T02:58:51.485Z,40.60
2022-08-05T03:01:26.998Z,40.96
2022-08-05T03:04:03.170Z,41.06
2022-08-05T03:06:56.939Z,41.46
2022-08-05T03:09:37.548Z,41.27
2022-08-05T03:12:08.732Z,41.36
2022-08-05T03:14:45.652Z,41.05
2022-08-05T03:17:16.432Z,41.52
2022-08-05T03:19:45.570Z,41.78
2022-08-05T03:22:16.277Z,41.79
2022-08-05T03:24:50.965Z,41.49
2022-08-05T03:27:22.104Z,41.49
2022-08-05T03:30:08.503Z,41.39
2022-08-05T03:32:39.402Z,41.44
2022-08-05T03:35:09.373Z,41.35
2022-08-05T03:37:46.281Z,41.43
2022-08-05T03:40:24.333Z,41.46
2022-08-05T03:43:15.745Z,41.89
2022-08-05T03:45:57.514Z,42.39
2022-08-05T03:48:29.527Z,42.47
2022-08-05T03:52:34.996Z,43.03
2022-08-05T03:55:50.693Z,43.46
2022-08-05T03:56:49.941Z,43.64
2022-08-05T03:59:22.243Z,44.06
2022-08-05T04:01:58.731Z,44.17
2022-08-05T04:04:32.874Z,44.56
2022-08-05T04:07:02.028Z,44.61
2022-08-05T04:09:36.523Z,44.86
2022-08-05T04:12:06.032Z,44.95
2022-08-05T04:14:53.841Z,45.25
2022-08-05T04:17:55.500Z,45.58
2022-08-05T04:20:24.327Z,46.09
2022-08-05T04:22:54.991Z,46.78
2022-08-05T04:25:57.900Z,47.11
2022-08-05T04:28:14.971Z,47.04
2022-08-05T04:30:44.011Z,45.70
2022-08-05T04:33:12.747Z,45.61
2022-08-05T04:36:11.095Z,45.64
2022-08-05T04:38:39.506Z,45.59
2022-08-05T04:41:10.761Z,46.04
2022-08-05T04:43:48.155Z,45.51
2022-08-05T04:46:28.270Z,45.90
2022-08-05T04:48:58.743Z,45.49
2022-08-05T04:51:30.496Z,45.63
2022-08-05T04:54:01.369Z,45.54
2022-08-05T04:56:34.553Z,45.51
2022-08-05T04:59:24.344Z,45.61
2022-08-05T05:02:07.670Z,45.61
2022-08-05T05:04:48.018Z,44.58
2022-08-05T05:07:24.001Z,43.80
2022-08-05T05:09:58.189Z,43.93
2022-08-05T05:12:27.214Z,41.60
2022-08-05T05:14:56.316Z,41.33
2022-08-05T05:17:56.882Z,39.69
2022-08-05T05:20:14.498Z,38.52
2022-08-05T05:22:44.725Z,36.51
2022-08-05T05:25:17.038Z,35.60
2022-08-05T05:27:53.611Z,33.46
2022-08-05T05:30:29.190Z,32.84
2022-08-05T05:33:00.866Z,32.88
2022-08-05T05:35:37.986Z,32.52
2022-08-05T05:38:13.405Z,32.69
2022-08-05T05:40:50.021Z,32.28
2022-08-05T05:43:54.065Z,31.97
2022-08-05T05:46:17.306Z,32.07
2022-08-05T05:48:48.844Z,32.43
2022-08-05T05:51:21.231Z,32.23
2022-08-05T05:53:57.843Z,32.54
2022-08-05T05:56:33.084Z,32.39
2022-08-05T05:59:05.711Z,32.50
2022-08-05T06:01:38.182Z,32.58
2022-08-05T06:04:11.702Z,32.27
2022-08-05T06:06:42.652Z,31.97
2022-08-05T06:09:17.729Z,32.95
2022-08-05T06:11:59.198Z,32.60
2022-08-05T06:14:29.271Z,32.15
2022-08-05T06:16:58.170Z,32.90
2022-08-05T06:19:34.666Z,33.25
2022-08-05T06:22:04.597Z,33.39
2022-08-05T06:24:36.413Z,33.81
2022-08-05T06:27:17.296Z,33.24
2022-08-05T06:30:02.827Z,34.03
2022-08-05T06:32:36.530Z,33.47
2022-08-05T06:35:21.899Z,32.78
2022-08-05T06:37:59.032Z,32.44
2022-08-05T06:40:32.415Z,32.47
2022-08-05T06:43:01.560Z,32.46
2022-08-05T06:45:44.753Z,32.50
2022-08-05T06:48:52.498Z,33.15
2022-08-05T06:51:09.732Z,32.37
2022-08-05T06:53:39.513Z,32.17
2022-08-05T06:56:16.265Z,32.43
2022-08-05T06:58:55.780Z,31.48
2022-08-05T07:01:27.712Z,31.56
2022-08-05T07:04:03.014Z,31.75
2022-08-05T07:06:32.201Z,31.18
2022-08-05T07:09:03.982Z,31.25
2022-08-05T07:11:39.865Z,29.72
2022-08-05T07:14:29.455Z,29.78
2022-08-05T07:18:00.996Z,28.61
2022-08-05T07:22:42.741Z,30.34
2022-08-05T07:25:55.384Z,28.42
2022-08-05T07:28:05.985Z,29.00
2022-08-05T07:30:39.927Z,29.21
2022-08-05T07:33:16.650Z,29.68
2022-08-05T07:36:05.300Z,27.97
2022-08-05T07:38:43.617Z,28.43
2022-08-05T07:42:08.574Z,28.51
2022-08-05T07:44:18.603Z,29.42
2022-08-05T07:46:49.581Z,28.20
2022-08-05T07:49:19.516Z,27.90
2022-08-05T07:51:53.700Z,27.95
2022-08-05T07:54:31.267Z,27.29
2022-08-05T07:57:18.091Z,27.87
2022-08-05T07:59:53.698Z,27.61
2022-08-05T08:02:26.777Z,28.05
2022-08-05T08:05:00.133Z,27.01
2022-08-05T08:07:29.376Z,27.72
2022-08-05T08:10:09.204Z,27.66
2022-08-05T08:12:49.423Z,27.47
2022-08-05T08:15:37.210Z,27.02
2022-08-05T08:18:09.954Z,27.59
2022-08-05T08:21:03.114Z,27.04
2022-08-05T08:24:01.106Z,26.19
2022-08-05T08:26:26.703Z,27.03
2022-08-05T08:29:21.508Z,26.04
2022-08-05T08:31:50.896Z,26.68
2022-08-05T08:34:30.389Z,26.57
2022-08-05T08:37:04.679Z,25.67
2022-08-05T08:39:37.751Z,26.44
2022-08-05T08:42:22.520Z,25.85
2022-08-05T08:45:23.263Z,25.72
2022-08-05T08:48:12.835Z,24.80
2022-08-05T08:51:22.247Z,24.58
2022-08-05T08:53:36.795Z,25.05
2022-08-05T08:56:07.104Z,25.39
2022-08-05T08:58:43.132Z,25.47
2022-08-05T09:01:17.400Z,25.08
2022-08-05T09:03:54.506Z,24.85
2022-08-05T09:06:29.684Z,25.15
2022-08-05T09:09:00.553Z,26.06
2022-08-05T09:11:51.504Z,24.79
2022-08-05T09:14:59.129Z,25.54
2022-08-05T09:17:16.017Z,25.23
2022-08-05T09:20:02.848Z,24.65
2022-08-05T09:23:08.968Z,24.49
2022-08-05T09:26:03.274Z,24.36
2022-08-05T09:28:32.182Z,24.45
2022-08-05T09:31:18.228Z,23.33
2022-08-05T09:33:56.177Z,24.41
2022-08-05T09:36:45.703Z,23.34
2022-08-05T09:39:27.735Z,23.48
2022-08-05T09:42:11.393Z,22.98
2022-08-05T09:44:50.471Z,23.60
2022-08-05T09:47:22.896Z,22.66
2022-08-05T09:49:54.997Z,23.01
2022-08-05T09:52:34.635Z,23.11
2022-08-05T09:55:06.482Z,24.27
2022-08-05T09:57:54.759Z,22.55
2022-08-05T10:00:27.650Z,22.42
2022-08-05T10:02:59.122Z,23.09
2022-08-05T10:05:33.017Z,22.72
2022-08-05T10:08:10.649Z,22.36
2022-08-05T10:10:57.173Z,22.46
2022-08-05T10:13:45.593Z,22.63
2022-08-05T10:16:32.268Z,21.62
2022-08-05T10:19:08.455Z,21.12
2022-08-05T10:21:40.845Z,21.76
2022-08-05T10:24:13.652Z,21.93
2022-08-05T10:26:51.618Z,20.62
2022-08-05T10:29:24.030Z,21.21
2022-08-05T10:33:01.488Z,21.42
2022-08-05T10:35:01.468Z,21.10
2022-08-05T10:37:37.238Z,21.41
2022-08-05T10:40:28.101Z,21.47
2022-08-05T10:43:01.152Z,21.28
2022-08-05T10:45:41.691Z,21.73
2022-08-05T10:48:35.086Z,20.22
2022-08-05T10:51:21.670Z,20.82
2022-08-05T10:53:58.487Z,21.06
2022-08-05T10:56:45.240Z,19.60
2022-08-05T11:00:03.155Z,20.10
2022-08-05T11:02:08.844Z,20.54
2022-08-05T11:04:47.785Z,20.22
2022-08-05T11:07:18.733Z,19.07
2022-08-05T11:10:04.101Z,18.36
2022-08-05T11:12:54.171Z,18.32
2022-08-05T11:16:00.779Z,18.74
2022-08-05T11:18:30.069Z,19.72
2022-08-05T11:21:02.750Z,18.66
2022-08-05T11:24:04.448Z,18.64
2022-08-05T11:26:28.172Z,18.76
2022-08-05T11:29:12.146Z,18.01
2022-08-05T11:31:57.971Z,18.43
2022-08-05T11:34:47.197Z,17.71
2022-08-05T11:38:29.935Z,18.03
2022-08-05T11:41:35.638Z,16.97
2022-08-05T11:44:06.462Z,17.29
2022-08-05T11:46:58.297Z,16.98
2022-08-05T11:49:28.994Z,17.67
2022-08-05T11:52:08.834Z,17.45
2022-08-05T11:54:41.757Z,17.30
2022-08-05T11:57:39.397Z,17.25
2022-08-05T12:00:01.060Z,16.72
2022-08-05T12:02:41.502Z,16.77
2022-08-05T12:05:36.347Z,16.81
2022-08-05T12:08:11.549Z,17.34
2022-08-05T12:10:47.077Z,16.51
2022-08-05T12:13:27.773Z,16.02
2022-08-05T12:16:14.693Z,16.55
2022-08-05T12:18:49.622Z,16.54
2022-08-05T12:21:24.300Z,15.47
2022-08-05T12:23:54.214Z,15.86
2022-08-05T12:26:23.212Z,15.74
2022-08-05T12:28:52.785Z,17.36
2022-08-05T12:31:23.788Z,15.93
2022-08-05T12:34:20.669Z,15.81
2022-08-05T12:36:53.327Z,16.13
2022-08-05T12:39:28.118Z,16.73
2022-08-05T12:42:04.000Z,17.00
2022-08-05T12:44:37.524Z,16.17
2022-08-05T12:47:12.281Z,16.35
2022-08-05T12:50:04.340Z,16.17
2022-08-05T12:52:41.874Z,14.93
2022-08-05T12:55:22.197Z,15.22
2022-08-05T12:58:49.460Z,14.88
2022-08-05T13:02:04.267Z,16.17
2022-08-05T13:03:41.645Z,15.62
2022-08-05T13:06:19.608Z,14.99
2022-08-05T13:08:51.740Z,14.35
2022-08-05T13:12:01.920Z,14.32
2022-08-05T13:14:24.725Z,13.45
2022-08-05T13:17:09.344Z,14.34
2022-08-05T13:19:51.590Z,14.07
2022-08-05T13:22:28.298Z,14.29
2022-08-05T13:25:05.139Z,15.12
2022-08-05T13:27:38.063Z,14.66
2022-08-05T13:30:33.513Z,13.85
2022-08-05T13:33:01.392Z,13.96
2022-08-05T13:35:42.407Z,14.31
2022-08-05T13:38:20.483Z,13.62
2022-08-05T13:40:59.537Z,14.64
2022-08-05T13:43:43.963Z,13.74
2022-08-05T13:46:26.450Z,13.75
2022-08-05T13:49:10.321Z,12.65
2022-08-05T13:51:46.343Z,13.23
2022-08-05T13:54:21.126Z,12.30
2022-08-05T13:56:54.156Z,12.88
2022-08-05T13:59:26.829Z,12.94
2022-08-05T14:01:57.754Z,13.54
2022-08-05T14:04:49.694Z,13.08
2022-08-05T14:07:55.519Z,13.29
2022-08-05T14:10:13.044Z,13.28
2022-08-05T14:12:42.828Z,13.32
2022-08-05T14:16:04.741Z,12.47
2022-08-05T14:18:02.036Z,13.12
2022-08-05T14:20:33.843Z,12.30
2022-08-05T14:23:02.662Z,11.96
2022-08-05T14:25:32.555Z,11.88
2022-08-05T14:28:01.421Z,12.08
2022-08-05T14:30:29.988Z,13.36
2022-08-05T14:32:58.844Z,12.55
2022-08-05T14:35:37.534Z,12.10
2022-08-05T14:38:31.736Z,12.45
2022-08-05T14:41:06.370Z,12.14
2022-08-05T14:44:02.271Z,10.99
2022-08-05T14:46:29.134Z,12.29
2022-08-05T14:49:03.472Z,11.68
2022-08-05T14:51:37.457Z,11.49
2022-08-05T14:54:29.930Z,11.33
2022-08-05T14:56:57.392Z,12.53
2022-08-05T14:59:29.531Z,12.16
2022-08-05T15:02:15.854Z,12.12
2022-08-05T15:04:47.889Z,12.20
2022-08-05T15:08:11.225Z,11.27
2022-08-05T15:10:09.623Z,11.93
2022-08-05T15:12:59.661Z,11.29
2022-08-05T15:15:54.510Z,12.83
2022-08-05T15:18:18.041Z,11.84
2022-08-05T15:20:46.537Z,11.81
2022-08-05T15:23:16.759Z,11.05
2022-08-05T15:25:52.148Z,11.80
2022-08-05T15:28:27.229Z,11.17
2022-08-05T15:30:57.394Z,12.03
2022-08-05T15:34:04.112Z,11.70
2022-08-05T15:36:17.185Z,11.39
2022-08-05T15:41:00.919Z,12.04
2022-08-05T15:41:56.123Z,10.75
2022-08-05T15:44:30.311Z,10.72
2022-08-05T15:47:00.494Z,10.46
2022-08-05T15:49:48.277Z,11.36
2022-08-05T15:52:51.825Z,11.59
2022-08-05T15:55:07.904Z,12.20
2022-08-05T15:57:39.232Z,12.29
2022-08-05T16:00:11.424Z,11.60
2022-08-05T16:02:40.431Z,12.29
2022-08-05T16:05:11.259Z,13.29
2022-08-05T16:07:46.233Z,11.95
2022-08-05T16:10:15.392Z,12.84
2022-08-05T16:12:46.516Z,13.03
2022-08-05T16:15:18.396Z,13.80
2022-08-05T16:17:57.306Z,14.48
2022-08-05T16:20:27.890Z,13.99
2022-08-05T16:22:57.473Z,13.24
2022-08-05T16:25:32.257Z,13.68
2022-08-05T16:28:05.734Z,13.76
2022-08-05T16:30:36.844Z,14.28
2022-08-05T16:33:05.777Z,14.70
2022-08-05T16:35:42.232Z,14.85
2022-08-05T16:38:18.700Z,14.98
2022-08-05T16:41:00.265Z,15.98
2022-08-05T16:43:31.505Z,15.93
2022-08-05T16:46:23.703Z,15.83
2022-08-05T16:48:53.570Z,15.82
2022-08-05T16:51:24.722Z,16.90
2022-08-05T16:54:03.885Z,17.00
2022-08-05T16:56:41.697Z,17.59
2022-08-05T16:59:15.614Z,18.38
2022-08-05T17:01:53.217Z,17.91
2022-08-05T17:04:26.375Z,19.37
2022-08-05T17:07:01.108Z,19.18
2022-08-05T17:09:38.913Z,19.69
2022-08-05T17:12:22.606Z,20.51
2022-08-05T17:15:09.406Z,20.42
2022-08-05T17:17:42.798Z,21.02
2022-08-05T17:20:14.821Z,21.78
2022-08-05T17:22:46.076Z,22.15
2022-08-05T17:25:39.367Z,22.24
2022-08-05T17:28:11.307Z,22.07
2022-08-05T17:30:51.803Z,22.91
2022-08-05T17:33:23.032Z,22.99
2022-08-05T17:36:08.863Z,23.21
2022-08-05T17:38:40.947Z,23.27
2022-08-05T17:42:16.355Z,23.53
2022-08-05T17:44:03.732Z,23.63
2022-08-05T17:46:32.748Z,23.98
2022-08-05T17:49:02.727Z,23.48
2022-08-05T17:51:40.336Z,23.91
2022-08-05T17:54:09.362Z,24.27
2022-08-05T17:56:38.717Z,23.96
2022-08-05T17:59:07.363Z,24.15
2022-08-05T18:01:49.607Z,24.10
2022-08-05T18:04:21.434Z,24.56
2022-08-05T18:07:00.327Z,24.58
2022-08-05T18:10:00.054Z,26.11
2022-08-05T18:12:24.537Z,26.77
2022-08-05T18:14:53.947Z,27.89
2022-08-05T18:18:00.133Z,28.82
2022-08-05T18:20:14.128Z,28.30
2022-08-05T18:22:53.759Z,28.75
2022-08-05T18:25:23.724Z,30.05
2022-08-05T18:27:53.815Z,29.96
2022-08-05T18:30:22.419Z,30.40
2022-08-05T18:33:00.303Z,29.05
2022-08-05T18:36:00.696Z,30.51
2022-08-05T18:38:25.737Z,29.80
2022-08-05T18:41:58.226Z,29.48
2022-08-05T18:43:49.039Z,29.25
2022-08-05T18:46:20.258Z,30.29
2022-08-05T18:48:51.537Z,29.39
2022-08-05T18:52:03.354Z,29.12
2022-08-05T18:54:31.243Z,29.37
2022-08-05T18:57:01.426Z,29.58
2022-08-05T18:59:44.082Z,29.51
2022-08-05T19:02:28.210Z,29.85
2022-08-05T19:05:02.074Z,29.54
2022-08-05T19:07:50.297Z,30.34
2022-08-05T19:10:28.079Z,30.10
2022-08-05T19:12:57.606Z,29.57
2022-08-05T19:15:59.222Z,29.95
2022-08-05T19:18:21.819Z,29.60
2022-08-05T19:20:52.925Z,29.65
2022-08-05T19:24:06.717Z,30.28
2022-08-05T19:26:12.900Z,30.08
2022-08-05T19:28:43.131Z,29.79
2022-08-05T19:31:13.575Z,30.45
2022-08-05T19:33:48.159Z,30.34
2022-08-05T19:36:26.692Z,30.65
2022-08-05T19:39:01.015Z,30.90
2022-08-05T19:41:58.184Z,31.20
2022-08-05T19:44:20.427Z,30.91
2022-08-05T19:46:50.172Z,30.46
2022-08-05T19:49:19.755Z,30.52
2022-08-05T19:52:09.040Z,30.74
2022-08-05T19:54:39.039Z,30.46
2022-08-05T19:57:10.820Z,30.81
2022-08-05T19:59:54.727Z,30.72
2022-08-05T20:02:32.234Z,31.95
2022-08-05T20:05:01.340Z,31.93
2022-08-05T20:07:47.183Z,31.44
2022-08-05T20:10:22.428Z,31.17
2022-08-05T20:12:53.437Z,31.10
2022-08-05T20:15:51.862Z,31.37
2022-08-05T20:18:32.691Z,31.24
2022-08-05T20:21:01.021Z,31.53
2022-08-05T20:23:44.539Z,31.42
2022-08-05T20:26:23.835Z,30.87
2022-08-05T20:28:55.816Z,31.39
2022-08-05T20:31:36.924Z,31.91
2022-08-05T20:34:12.430Z,31.83
2022-08-05T20:36:43.389Z,31.91
2022-08-05T20:39:13.470Z,31.14
2022-08-05T20:41:48.165Z,31.32
2022-08-05T20:44:29.478Z,32.93
2022-08-05T20:47:00.106Z,32.62
2022-08-05T20:49:28.945Z,33.06
2022-08-05T20:51:58.340Z,32.09
2022-08-05T20:54:43.308Z,32.34
2022-08-05T20:57:24.912Z,32.34
2022-08-05T21:00:34.923Z,32.36
2022-08-05T21:03:01.140Z,32.98
2022-08-05T21:05:47.937Z,33.06
2022-08-05T21:08:19.046Z,34.53
2022-08-05T21:10:48.842Z,33.52
2022-08-05T21:13:26.423Z,33.85
2022-08-05T21:16:08.714Z,33.36
2022-08-05T21:18:37.356Z,33.60
2022-08-05T21:21:06.288Z,33.40
2022-08-05T21:23:37.358Z,33.30
2022-08-05T21:26:12.350Z,34.58
2022-08-05T21:28:47.984Z,33.98
2022-08-05T21:31:20.263Z,33.73
2022-08-05T21:33:50.356Z,34.04
2022-08-05T21:36:29.808Z,33.50
2022-08-05T21:38:59.040Z,33.87
2022-08-05T21:41:32.868Z,34.73
2022-08-05T21:44:05.300Z,35.02
2022-08-05T21:46:34.306Z,34.95
2022-08-05T21:49:07.265Z,35.39
2022-08-05T21:52:28.153Z,35.71
2022-08-05T21:54:28.085Z,35.32
2022-08-05T21:57:29.805Z,36.35
2022-08-05T22:00:04.988Z,36.52
2022-08-05T22:02:42.525Z,36.31
2022-08-05T22:05:11.981Z,35.96
2022-08-05T22:07:58.469Z,36.42
2022-08-05T22:10:29.239Z,36.12
2022-08-05T22:13:09.129Z,36.09
2022-08-05T22:16:02.156Z,35.48
2022-08-05T22:18:39.001Z,35.78
2022-08-05T22:21:17.885Z,35.50
2022-08-05T22:24:08.942Z,35.93
2022-08-05T22:26:59.973Z,36.17
2022-08-05T22:29:32.881Z,36.46
2022-08-05T22:32:03.624Z,36.11
2022-08-05T22:34:32.749Z,36.56
2022-08-05T22:37:03.889Z,36.46
2022-08-05T22:39:35.213Z,36.38
2022-08-05T22:42:12.149Z,36.95
2022-08-05T22:44:48.662Z,36.56
2022-08-05T22:47:30.004Z,36.83
2022-08-05T22:50:19.513Z,36.80
2022-08-05T22:52:49.615Z,36.16
2022-08-05T22:55:21.343Z,37.02
2022-08-05T22:57:51.120Z,36.52
2022-08-05T23:00:21.791Z,37.79
2022-08-05T23:02:55.127Z,37.26
2022-08-05T23:05:24.244Z,38.11
2022-08-05T23:07:53.547Z,37.14
2022-08-05T23:10:23.462Z,37.74
2022-08-05T23:12:55.111Z,37.66
2022-08-05T23:15:27.105Z,38.36
2022-08-05T23:18:03.140Z,38.29
2022-08-05T23:20:33.540Z,38.28
2022-08-05T23:23:08.572Z,38.16
2022-08-05T23:25:54.747Z,38.36
2022-08-05T23:28:26.918Z,37.87
2022-08-05T23:31:16.062Z,37.86
2022-08-05T23:34:03.908Z,37.34
2022-08-05T23:36:38.582Z,38.18
2022-08-05T23:39:09.479Z,38.73
2022-08-05T23:41:41.014Z,38.89
2022-08-05T23:44:17.569Z,39.56
2022-08-05T23:46:48.809Z,39.68
2022-08-05T23:49:23.609Z,38.98
2022-08-05T23:52:11.771Z,39.57
2022-08-05T23:54:40.826Z,39.46
2022-08-05T23:57:10.017Z,39.74
